Time;durP1;ratioP1;P1;durP2;ratioP2;P2;SDS_P1;SDS_P2;PMS_P1;PMS_P2;Temp;Humidity;BMP_temperature;BMP_pressure;BME280_temperature;BME280_humidity;BME280_pressure;Samples;Min_cycle;Max_cycle;Signal;HPM_P1;HPM_P2
2023/06/14 00:00:25;;;;;;;8.90;5.33;;;20.10;99.90;;;;;;6247806;23;20442;-82
2023/06/14 00:02:55;;;;;;;5.40;4.13;;;20.00;99.90;;;;;;6248262;23;20522;-80
2023/06/14 00:05:23;;;;;;;6.33;4.60;;;20.00;99.90;;;;;;6246762;23;21048;-80
2023/06/14 00:07:53;;;;;;;5.60;4.80;;;20.10;99.90;;;;;;6249375;23;20411;-82
2023/06/14 00:10:21;;;;;;;7.50;4.90;;;20.10;99.90;;;;;;6247741;23;20403;-83
2023/06/14 00:12:48;;;;;;;8.70;5.67;;;20.10;99.90;;;;;;6249187;23;20474;-81
2023/06/14 00:15:15;;;;;;;5.77;4.40;;;20.10;99.90;;;;;;6249318;23;20411;-81
2023/06/14 00:17:42;;;;;;;6.17;4.87;;;20.10;99.90;;;;;;6250289;23;20454;-81
2023/06/14 00:20:10;;;;;;;6.77;4.67;;;20.10;99.90;;;;;;6250487;23;20477;-81
2023/06/14 00:22:38;;;;;;;6.07;4.83;;;20.00;99.90;;;;;;6250735;23;20466;-82
2023/06/14 00:25:06;;;;;;;5.37;4.80;;;20.00;99.90;;;;;;6250964;23;21098;-82
2023/06/14 00:27:34;;;;;;;5.80;4.23;;;20.00;99.90;;;;;;6249315;23;20411;-81
2023/06/14 00:30:01;;;;;;;7.40;5.37;;;20.00;99.90;;;;;;6249972;23;20423;-82
2023/06/14 00:32:28;;;;;;;6.10;4.63;;;20.00;99.90;;;;;;6249997;23;20522;-82
2023/06/14 00:34:54;;;;;;;5.77;5.10;;;19.80;99.90;;;;;;6250265;23;20815;-81
2023/06/14 00:37:21;;;;;;;7.90;5.10;;;19.80;99.90;;;;;;6249632;23;20451;-81
2023/06/14 00:39:48;;;;;;;6.60;4.70;;;19.70;99.90;;;;;;6249719;23;20494;-84
2023/06/14 00:42:25;;;;;;;7.03;4.00;;;19.70;99.90;;;;;;6249638;23;20530;-80
2023/06/14 00:44:53;;;;;;;4.50;3.93;;;19.70;99.90;;;;;;6250009;23;21024;-79
2023/06/14 00:47:20;;;;;;;5.13;4.63;;;19.70;99.90;;;;;;6248769;23;20446;-84
2023/06/14 00:49:48;;;;;;;7.77;4.33;;;19.70;99.90;;;;;;6250566;23;20451;-82
2023/06/14 00:52:16;;;;;;;4.77;4.20;;;19.60;99.90;;;;;;6250701;23;20881;-80
2023/06/14 00:54:43;;;;;;;6.27;4.53;;;19.60;99.90;;;;;;6250147;23;20902;-83
2023/06/14 00:57:11;;;;;;;6.00;4.50;;;19.60;99.90;;;;;;6249351;23;20749;-82
2023/06/14 00:59:42;;;;;;;6.03;4.70;;;19.60;99.90;;;;;;6250424;23;20462;-81
2023/06/14 01:02:11;;;;;;;6.67;4.53;;;19.60;99.90;;;;;;6249297;22;20434;-82
2023/06/14 01:04:39;;;;;;;7.23;4.67;;;19.60;99.90;;;;;;6248745;23;20842;-82
2023/06/14 01:07:16;;;;;;;7.77;4.40;;;19.60;99.90;;;;;;6249026;23;20408;-82
2023/06/14 01:09:53;;;;;;;6.57;4.60;;;19.50;99.90;;;;;;6251284;23;20460;-84
2023/06/14 01:12:30;;;;;;;5.40;4.60;;;19.40;99.90;;;;;;6250423;23;20485;-81
2023/06/14 01:15:00;;;;;;;4.60;3.90;;;19.40;99.90;;;;;;6252034;23;20430;-82
2023/06/14 01:17:31;;;;;;;7.30;4.33;;;19.40;99.90;;;;;;6255078;23;20775;-79
2023/06/14 01:19:59;;;;;;;7.20;4.40;;;19.40;99.90;;;;;;6261016;23;20395;-78
2023/06/14 01:22:27;;;;;;;5.70;4.77;;;19.30;99.90;;;;;;6259298;23;20455;-82
2023/06/14 01:24:56;;;;;;;6.40;4.30;;;19.30;99.90;;;;;;6254964;23;20411;-83
2023/06/14 01:27:28;;;;;;;5.83;4.07;;;19.30;99.90;;;;;;6255073;23;20414;-82
2023/06/14 01:29:57;;;;;;;8.80;4.50;;;19.30;99.90;;;;;;6249487;23;20769;-82
2023/06/14 01:32:25;;;;;;;8.00;4.13;;;19.30;99.90;;;;;;6249438;23;20469;-81
2023/06/14 01:34:52;;;;;;;9.93;4.70;;;19.20;99.90;;;;;;6250139;23;20837;-81
2023/06/14 01:37:20;;;;;;;8.13;4.50;;;19.20;99.90;;;;;;6249161;23;20495;-82
2023/06/14 01:39:48;;;;;;;5.50;4.30;;;19.10;99.90;;;;;;6250183;23;20889;-81
2023/06/14 01:42:17;;;;;;;6.97;4.47;;;19.10;99.90;;;;;;6249033;23;20830;-80
2023/06/14 01:44:45;;;;;;;6.20;4.03;;;19.10;99.90;;;;;;6250350;23;20755;-81
2023/06/14 01:47:13;;;;;;;6.17;4.10;;;19.10;99.90;;;;;;6248388;23;20407;-81
2023/06/14 01:49:40;;;;;;;7.10;4.33;;;19.00;99.90;;;;;;6249503;23;20411;-80
2023/06/14 01:52:09;;;;;;;6.30;4.00;;;19.00;99.90;;;;;;6249382;23;20614;-82
2023/06/14 01:54:37;;;;;;;5.60;4.27;;;19.00;99.90;;;;;;6248728;23;20947;-81
2023/06/14 01:57:07;;;;;;;8.03;4.03;;;18.90;99.90;;;;;;6248520;23;20422;-81
2023/06/14 01:59:35;;;;;;;4.80;4.20;;;18.80;99.90;;;;;;6249027;23;20428;-80
2023/06/14 02:02:03;;;;;;;5.27;4.00;;;18.80;99.90;;;;;;6245729;22;20455;-82
2023/06/14 02:04:30;;;;;;;5.07;4.17;;;18.80;99.90;;;;;;6249422;23;20443;-81
2023/06/14 02:06:57;;;;;;;6.00;4.73;;;18.80;99.90;;;;;;6248808;23;20414;-83
2023/06/14 02:09:24;;;;;;;5.20;4.30;;;18.80;99.90;;;;;;6251782;23;20523;-82
2023/06/14 02:12:02;;;;;;;7.00;4.40;;;18.70;99.90;;;;;;6247660;23;20936;-75
2023/06/14 02:14:52;;;;;;;15.73;5.93;;;18.70;99.90;;;;;;6244946;23;20817;-77
2023/06/14 02:17:19;;;;;;;6.37;4.00;;;18.60;99.90;;;;;;6249549;23;20423;-80
2023/06/14 02:19:52;;;;;;;8.23;4.30;;;18.60;99.90;;;;;;6250654;23;20756;-77
2023/06/14 02:22:21;;;;;;;5.20;4.00;;;18.60;99.90;;;;;;6248919;23;20478;-80
2023/06/14 02:24:50;;;;;;;6.80;4.10;;;18.60;99.90;;;;;;6248746;23;20505;-77
2023/06/14 02:27:17;;;;;;;6.63;4.17;;;18.50;99.90;;;;;;6247710;23;20741;-80
2023/06/14 02:29:50;;;;;;;6.30;4.40;;;18.50;99.90;;;;;;6248312;23;20505;-79
2023/06/14 02:35:28;;;;;;;6.80;3.30;;;18.40;99.90;;;;;;6074372;23;20407;-79
2023/06/14 02:37:54;;;;;;;4.60;3.40;;;18.30;99.90;;;;;;6249350;23;20396;-81
2023/06/14 02:40:21;;;;;;;7.93;4.63;;;18.20;99.90;;;;;;6247732;23;20493;-81
2023/06/14 02:42:50;;;;;;;4.80;3.57;;;18.20;99.90;;;;;;6244536;23;20612;-77
2023/06/14 02:45:22;;;;;;;6.10;4.17;;;18.20;99.90;;;;;;6244349;23;20458;-77
2023/06/14 02:47:51;;;;;;;6.00;3.80;;;18.20;99.90;;;;;;6250082;23;20486;-77
2023/06/14 02:50:18;;;;;;;11.93;3.90;;;18.10;99.90;;;;;;6249506;23;20411;-78
2023/06/14 02:53:04;;;;;;;4.30;3.30;;;18.10;99.90;;;;;;6244934;23;20449;-77
2023/06/14 02:55:31;;;;;;;7.03;3.77;;;18.10;99.90;;;;;;6244268;23;20380;-79
2023/06/14 02:57:58;;;;;;;5.53;3.50;;;18.10;99.90;;;;;;6251597;23;20410;-81
2023/06/14 03:07:19;;;;;;;5.03;3.50;;;18.00;99.90;;;;;;5964648;23;20770;-81
2023/06/14 03:09:50;;;;;;;6.87;3.90;;;17.90;99.90;;;;;;6218592;23;20393;-77
2023/06/14 03:15:31;;;;;;;5.87;3.23;;;18.00;99.90;;;;;;6182762;23;20803;-80
2023/06/14 03:18:04;;;;;;;5.30;3.60;;;17.90;99.90;;;;;;6248636;23;20760;-78
2023/06/14 03:20:40;;;;;;;7.70;3.40;;;17.90;99.90;;;;;;6247969;23;20415;-77
2023/06/14 03:23:19;;;;;;;8.07;3.60;;;17.80;99.90;;;;;;6244480;23;20500;-77
2023/06/14 03:25:46;;;;;;;7.60;3.60;;;17.90;99.90;;;;;;6244931;23;20434;-80
2023/06/14 03:28:13;;;;;;;8.70;3.63;;;17.70;99.90;;;;;;6248042;23;20501;-79
2023/06/14 03:30:46;;;;;;;6.47;3.83;;;17.80;99.90;;;;;;6248554;23;20765;-77
2023/06/14 03:33:37;;;;;;;4.73;3.57;;;17.70;99.90;;;;;;6244335;23;20384;-77
2023/06/14 03:36:04;;;;;;;5.70;3.10;;;17.70;99.90;;;;;;6245459;23;20394;-79
2023/06/14 03:38:33;;;;;;;6.83;3.60;;;17.60;99.90;;;;;;6248315;23;20474;-78
2023/06/14 03:47:31;;;;;;;7.20;3.30;;;17.60;99.90;;;;;;6089346;23;20407;-81
2023/06/14 03:49:58;;;;;;;4.40;3.37;;;17.60;99.90;;;;;;6215587;23;20411;-81
2023/06/14 03:52:27;;;;;;;3.83;2.90;;;17.60;99.90;;;;;;6247675;23;20480;-77
2023/06/14 03:55:13;;;;;;;4.90;3.20;;;17.60;99.90;;;;;;6246431;23;20782;-76
2023/06/14 03:57:40;;;;;;;4.93;3.10;;;17.50;99.90;;;;;;6243034;23;20492;-77
2023/06/14 04:00:09;;;;;;;6.40;3.17;;;17.60;99.90;;;;;;6252324;23;20477;-81
2023/06/14 04:02:36;;;;;;;9.10;3.20;;;17.50;99.90;;;;;;6252281;23;20453;-80
2023/06/14 04:05:03;;;;;;;7.27;3.27;;;17.60;99.90;;;;;;6252228;23;20736;-78
2023/06/14 04:07:30;;;;;;;6.90;3.40;;;17.60;99.90;;;;;;6250999;23;20450;-80
2023/06/14 04:09:58;;;;;;;6.03;3.10;;;17.60;99.90;;;;;;6251863;23;20421;-78
2023/06/14 04:12:27;;;;;;;6.20;3.60;;;17.60;99.90;;;;;;6247972;23;20796;-77
2023/06/14 04:15:24;;;;;;;5.30;3.53;;;17.60;99.90;;;;;;6243755;23;20423;-77
2023/06/14 04:17:51;;;;;;;5.10;3.23;;;17.50;99.90;;;;;;6244372;23;20449;-76
2023/06/14 04:20:22;;;;;;;9.80;3.13;;;17.60;99.90;;;;;;6249181;23;20466;-78
2023/06/14 04:23:15;;;;;;;5.30;2.77;;;17.70;99.90;;;;;;6245898;23;20518;-76
2023/06/14 04:25:44;;;;;;;6.33;3.30;;;17.60;99.90;;;;;;6248532;23;20425;-80
2023/06/14 04:28:11;;;;;;;6.40;3.37;;;17.70;99.90;;;;;;6251462;23;20482;-81
2023/06/14 04:30:40;;;;;;;7.27;2.97;;;17.70;99.90;;;;;;6251234;23;20437;-80
2023/06/14 04:33:07;;;;;;;4.00;2.87;;;17.80;99.90;;;;;;6250967;23;20453;-80
2023/06/14 04:35:35;;;;;;;5.07;2.80;;;17.80;99.90;;;;;;6252116;23;20424;-79
2023/06/14 04:38:04;;;;;;;6.70;3.13;;;17.80;99.90;;;;;;6251541;23;20409;-79
2023/06/14 04:40:31;;;;;;;4.80;3.00;;;17.70;99.90;;;;;;6251984;23;20437;-80
2023/06/14 04:43:00;;;;;;;5.63;3.07;;;17.80;99.90;;;;;;6250893;23;20788;-78
2023/06/14 04:45:32;;;;;;;5.10;3.57;;;17.80;99.90;;;;;;6251541;23;20425;-80
2023/06/14 04:47:59;;;;;;;5.40;3.00;;;17.90;99.90;;;;;;6251128;23;20406;-79
2023/06/14 04:50:26;;;;;;;10.60;3.40;;;17.90;99.90;;;;;;6250975;23;20410;-79
2023/06/14 04:52:54;;;;;;;4.93;3.70;;;17.80;99.90;;;;;;6250677;23;20486;-81
2023/06/14 04:55:21;;;;;;;6.13;3.20;;;17.90;99.90;;;;;;6251023;23;20421;-82
2023/06/14 04:57:48;;;;;;;5.10;2.90;;;17.80;99.90;;;;;;6252175;23;20481;-82
2023/06/14 05:00:17;;;;;;;7.33;3.30;;;17.90;99.90;;;;;;6250653;23;20406;-81
2023/06/14 05:02:44;;;;;;;7.47;3.20;;;18.00;99.90;;;;;;6252970;23;20466;-82
2023/06/14 05:05:11;;;;;;;5.70;2.73;;;18.00;99.90;;;;;;6262623;23;20405;-80
2023/06/14 05:07:38;;;;;;;7.63;3.77;;;18.10;99.90;;;;;;6259847;23;20410;-83
2023/06/14 05:10:06;;;;;;;5.17;3.17;;;18.10;99.90;;;;;;6251992;23;20414;-83
2023/06/14 05:12:34;;;;;;;5.60;3.53;;;18.20;99.90;;;;;;6250977;23;20438;-81
2023/06/14 05:15:00;;;;;;;6.83;3.13;;;18.30;99.90;;;;;;6251550;23;20421;-82
2023/06/14 05:17:29;;;;;;;7.93;3.03;;;18.20;99.90;;;;;;6250209;23;20441;-82
2023/06/14 05:19:55;;;;;;;6.57;3.13;;;18.40;99.90;;;;;;6252412;23;20415;-83
2023/06/14 05:22:22;;;;;;;4.90;2.70;;;18.50;99.90;;;;;;6252904;23;20446;-82
2023/06/14 05:24:49;;;;;;;4.10;3.10;;;18.50;99.90;;;;;;6250890;23;20442;-83
2023/06/14 05:27:17;;;;;;;4.87;2.87;;;18.50;99.90;;;;;;6248520;23;20999;-80
2023/06/14 05:29:44;;;;;;;5.70;3.17;;;18.40;99.90;;;;;;6248881;23;20411;-82
2023/06/14 05:32:11;;;;;;;7.03;2.97;;;18.50;99.90;;;;;;6249325;23;20510;-82
2023/06/14 05:34:39;;;;;;;6.90;3.40;;;18.60;99.90;;;;;;6249544;23;20500;-80
2023/06/14 05:37:06;;;;;;;5.70;2.87;;;18.50;99.90;;;;;;6245240;23;20441;-79
2023/06/14 05:39:33;;;;;;;7.43;3.27;;;18.60;99.90;;;;;;6231310;23;20711;-82
2023/06/14 05:42:00;;;;;;;6.93;3.40;;;18.70;99.90;;;;;;6256328;23;20510;-82
2023/06/14 05:44:27;;;;;;;6.80;2.70;;;18.60;99.90;;;;;;6254966;23;20497;-80
2023/06/14 05:46:53;;;;;;;5.07;2.33;;;18.60;99.90;;;;;;6252150;23;20407;-84
2023/06/14 05:49:20;;;;;;;6.03;2.57;;;18.70;99.90;;;;;;6251678;23;20494;-82
2023/06/14 05:51:48;;;;;;;8.03;2.93;;;18.70;99.90;;;;;;6247714;23;20428;-81
2023/06/14 05:54:15;;;;;;;9.70;3.13;;;18.80;99.90;;;;;;6251530;23;20487;-81
2023/06/14 05:56:42;;;;;;;9.70;3.10;;;18.90;99.90;;;;;;6250594;23;20906;-82
2023/06/14 05:59:09;;;;;;;4.90;2.70;;;19.00;99.90;;;;;;6252443;23;20451;-83
2023/06/14 06:01:36;;;;;;;4.80;2.67;;;19.00;99.90;;;;;;6250260;23;20514;-82
2023/06/14 06:04:03;;;;;;;4.33;3.03;;;19.00;99.90;;;;;;6250792;23;20446;-81
2023/06/14 06:06:30;;;;;;;5.17;2.80;;;19.10;99.90;;;;;;6250617;23;20407;-82
2023/06/14 06:08:58;;;;;;;4.40;2.87;;;19.30;99.90;;;;;;6250403;23;20932;-82
2023/06/14 06:11:25;;;;;;;8.60;3.47;;;19.20;99.90;;;;;;6250475;23;20432;-81
2023/06/14 06:13:51;;;;;;;6.70;2.80;;;19.20;99.90;;;;;;6249832;23;20453;-81
2023/06/14 06:16:18;;;;;;;4.37;2.13;;;19.30;99.90;;;;;;6250677;23;20491;-80
2023/06/14 06:18:45;;;;;;;4.70;2.70;;;19.30;99.90;;;;;;6250521;23;20445;-81
2023/06/14 06:21:12;;;;;;;5.80;2.20;;;19.40;99.90;;;;;;6250345;23;20433;-81
2023/06/14 06:23:39;;;;;;;5.80;2.10;;;19.40;99.90;;;;;;6250695;23;20530;-80
2023/06/14 06:26:07;;;;;;;5.87;1.97;;;19.50;99.90;;;;;;6250844;23;20438;-81
2023/06/14 06:28:34;;;;;;;6.37;2.60;;;19.60;99.90;;;;;;6250629;23;20415;-82
2023/06/14 06:31:00;;;;;;;3.80;1.97;;;19.50;99.90;;;;;;6250795;23;20459;-81
2023/06/14 06:33:27;;;;;;;6.10;2.17;;;19.60;99.90;;;;;;6250681;23;20404;-82
2023/06/14 06:35:54;;;;;;;9.60;2.40;;;19.60;99.90;;;;;;6249032;23;20442;-80
2023/06/14 06:38:21;;;;;;;5.40;2.70;;;19.70;99.90;;;;;;6248501;23;20499;-80
2023/06/14 06:40:48;;;;;;;5.93;2.43;;;19.80;99.90;;;;;;6250342;23;20491;-80
2023/06/14 06:43:16;;;;;;;4.67;2.00;;;19.90;99.90;;;;;;6251402;23;20478;-81
2023/06/14 06:45:43;;;;;;;4.77;2.27;;;19.90;99.90;;;;;;6250366;23;20756;-81
2023/06/14 06:48:11;;;;;;;7.87;2.70;;;19.90;99.90;;;;;;6250157;23;20495;-80
2023/06/14 06:50:37;;;;;;;5.33;2.87;;;20.10;99.90;;;;;;6250471;23;20436;-80
2023/06/14 06:53:05;;;;;;;3.70;2.27;;;20.10;99.90;;;;;;6251635;23;20471;-81
2023/06/14 06:55:32;;;;;;;4.60;2.03;;;20.10;99.90;;;;;;6251678;23;20404;-79
2023/06/14 06:57:59;;;;;;;3.60;2.50;;;20.10;99.90;;;;;;6250599;23;20431;-82
2023/06/14 07:00:27;;;;;;;5.20;2.97;;;20.20;99.90;;;;;;6252214;23;20412;-82
2023/06/14 07:02:55;;;;;;;6.27;2.93;;;20.20;99.90;;;;;;6255403;23;20503;-79
2023/06/14 07:05:21;;;;;;;2.90;1.90;;;20.10;99.90;;;;;;6253633;23;20410;-82
2023/06/14 07:07:48;;;;;;;4.50;2.53;;;20.20;99.90;;;;;;6251473;23;20472;-81
2023/06/14 07:10:15;;;;;;;7.93;3.23;;;20.40;99.90;;;;;;6260950;23;20443;-80
2023/06/14 07:12:42;;;;;;;5.90;2.30;;;20.40;99.90;;;;;;6260285;23;20403;-81
2023/06/14 07:15:11;;;;;;;4.60;2.80;;;20.60;99.90;;;;;;6250762;23;20454;-80
2023/06/14 07:17:39;;;;;;;5.53;2.17;;;20.70;99.90;;;;;;6251050;23;20916;-81
2023/06/14 07:20:11;;;;;;;8.50;2.10;;;20.60;99.90;;;;;;6250264;23;20408;-80
2023/06/14 07:22:38;;;;;;;3.63;1.90;;;20.60;99.90;;;;;;6250530;23;20475;-79
2023/06/14 07:25:09;;;;;;;3.60;2.30;;;20.70;99.90;;;;;;6250496;23;20431;-80
2023/06/14 07:27:36;;;;;;;4.20;2.20;;;20.80;99.90;;;;;;6253384;23;20426;-80
2023/06/14 07:30:02;;;;;;;5.00;1.80;;;20.90;99.90;;;;;;6251253;23;20406;-79
2023/06/14 07:32:29;;;;;;;4.40;2.47;;;20.90;99.90;;;;;;6251648;23;20782;-80
2023/06/14 07:34:57;;;;;;;3.33;1.97;;;20.90;99.90;;;;;;6250510;23;20453;-79
2023/06/14 07:37:24;;;;;;;4.67;2.00;;;21.10;99.90;;;;;;6250785;23;20414;-80
2023/06/14 07:39:51;;;;;;;3.63;2.10;;;21.10;99.90;;;;;;6250301;23;20439;-78
2023/06/14 07:42:18;;;;;;;6.00;2.10;;;21.10;99.90;;;;;;6250238;23;20527;-79
2023/06/14 07:44:45;;;;;;;4.30;1.80;;;21.20;99.90;;;;;;6250847;23;20403;-79
2023/06/14 07:47:12;;;;;;;3.90;2.30;;;21.20;99.90;;;;;;6250517;23;20418;-79
2023/06/14 07:49:38;;;;;;;4.07;1.90;;;21.30;99.90;;;;;;6250746;23;20415;-80
2023/06/14 07:52:07;;;;;;;4.87;1.93;;;21.40;99.90;;;;;;6250770;23;20988;-79
2023/06/14 07:54:34;;;;;;;3.10;1.93;;;21.30;99.90;;;;;;6251895;23;20753;-79
2023/06/14 07:57:01;;;;;;;3.97;1.80;;;21.40;99.90;;;;;;6251277;23;20438;-79
2023/06/14 07:59:28;;;;;;;4.60;1.80;;;21.50;99.90;;;;;;6250284;23;20412;-79
2023/06/14 08:01:55;;;;;;;2.80;1.60;;;21.40;99.90;;;;;;6251730;22;20546;-81
2023/06/14 08:04:21;;;;;;;3.57;1.80;;;21.50;99.90;;;;;;6257280;23;20459;-82
2023/06/14 08:06:49;;;;;;;5.20;1.90;;;21.60;99.90;;;;;;6258866;23;20783;-81
2023/06/14 08:09:17;;;;;;;5.17;2.20;;;21.70;99.90;;;;;;6257879;23;20462;-82
2023/06/14 08:11:44;;;;;;;2.73;1.80;;;21.80;99.90;;;;;;6256949;23;20428;-83
2023/06/14 08:14:14;;;;;;;3.67;1.80;;;21.80;99.90;;;;;;6258886;23;20415;-82
2023/06/14 08:16:41;;;;;;;3.97;1.93;;;21.90;99.90;;;;;;6256250;23;20447;-81
2023/06/14 08:19:08;;;;;;;3.07;1.70;;;22.00;99.90;;;;;;6257839;23;20418;-82
2023/06/14 08:21:36;;;;;;;6.50;1.70;;;22.00;99.90;;;;;;6258826;23;20469;-84
2023/06/14 08:24:03;;;;;;;3.00;1.63;;;22.10;99.90;;;;;;6256582;23;20482;-81
2023/06/14 08:26:31;;;;;;;3.37;1.83;;;22.20;99.90;;;;;;6253636;23;20416;-81
2023/06/14 08:28:59;;;;;;;2.70;1.40;;;22.40;99.90;;;;;;6255661;23;20422;-83
2023/06/14 08:31:27;;;;;;;3.37;1.63;;;22.40;99.90;;;;;;6257654;23;20485;-81
2023/06/14 08:33:54;;;;;;;3.67;2.10;;;22.60;99.90;;;;;;6257843;23;20398;-82
2023/06/14 08:36:22;;;;;;;4.43;1.53;;;22.70;99.90;;;;;;6258848;23;20415;-81
2023/06/14 08:38:49;;;;;;;6.73;2.03;;;22.80;99.90;;;;;;6258660;23;20627;-82
2023/06/14 08:41:22;;;;;;;4.43;3.80;;;22.90;99.90;;;;;;6260587;23;20423;-81
2023/06/14 08:43:50;;;;;;;2.87;1.73;;;23.10;99.90;;;;;;6260946;23;20455;-81
2023/06/14 08:46:19;;;;;;;4.17;1.73;;;23.30;99.90;;;;;;6262488;23;21023;-82
2023/06/14 08:48:48;;;;;;;3.67;1.90;;;23.60;99.90;;;;;;6261973;23;20492;-80
2023/06/14 08:51:16;;;;;;;3.87;2.00;;;23.50;99.90;;;;;;6263500;23;20427;-82
2023/06/14 08:53:45;;;;;;;4.60;1.57;;;23.60;99.90;;;;;;6261218;23;20416;-83
2023/06/14 08:56:13;;;;;;;4.50;1.93;;;23.70;99.90;;;;;;6258989;23;20400;-81
2023/06/14 08:58:43;;;;;;;4.33;1.30;;;23.50;99.90;;;;;;6264450;23;20411;-82
2023/06/14 09:01:14;;;;;;;5.40;1.37;;;23.60;99.90;;;;;;6263167;22;20439;-82
2023/06/14 09:03:41;;;;;;;4.63;1.50;;;24.00;99.90;;;;;;6257350;23;20948;-82
2023/06/14 09:06:13;;;;;;;5.07;1.93;;;24.60;99.90;;;;;;6257081;23;20479;-81
2023/06/14 09:08:41;;;;;;;3.50;1.70;;;24.70;99.90;;;;;;6259431;23;20400;-81
2023/06/14 09:11:09;;;;;;;3.13;1.57;;;25.40;99.90;;;;;;6259705;23;20491;-83
2023/06/14 09:13:36;;;;;;;4.97;1.50;;;25.90;99.90;;;;;;6260090;23;20918;-82
2023/06/14 09:16:05;;;;;;;3.40;1.60;;;26.50;99.90;;;;;;6259352;23;20431;-82
2023/06/14 09:18:38;;;;;;;2.87;1.40;;;27.00;99.90;;;;;;6262001;23;20443;-82
2023/06/14 09:21:07;;;;;;;3.60;1.37;;;27.10;99.90;;;;;;6261316;23;20507;-82
2023/06/14 09:23:38;;;;;;;2.80;1.10;;;27.30;99.90;;;;;;6258065;23;20862;-82
2023/06/14 09:26:08;;;;;;;3.67;1.57;;;27.50;99.90;;;;;;6261063;23;20392;-82
2023/06/14 09:28:35;;;;;;;2.83;1.40;;;27.50;99.90;;;;;;6265684;23;20396;-82
2023/06/14 09:31:02;;;;;;;5.43;1.57;;;27.60;99.90;;;;;;6266308;23;20424;-82
2023/06/14 09:33:29;;;;;;;3.13;1.30;;;27.60;99.90;;;;;;6265864;23;20400;-82
2023/06/14 09:36:06;;;;;;;2.80;1.40;;;27.60;99.90;;;;;;6263172;23;20435;-82
2023/06/14 09:38:35;;;;;;;3.40;1.23;;;27.60;99.90;;;;;;6263037;23;20412;-81
2023/06/14 09:41:05;;;;;;;2.00;1.10;;;27.30;99.90;;;;;;6262506;23;20441;-81
2023/06/14 09:43:33;;;;;;;4.20;1.10;;;27.10;99.90;;;;;;6262818;23;20446;-81
2023/06/14 09:46:01;;;;;;;2.20;1.30;;;27.00;99.90;;;;;;6262324;23;20407;-81
2023/06/14 09:48:32;;;;;;;3.93;1.40;;;26.80;99.90;;;;;;6262505;23;20392;-81
2023/06/14 09:51:02;;;;;;;4.40;1.10;;;26.40;99.90;;;;;;6271239;23;20823;-81
2023/06/14 09:53:31;;;;;;;2.47;1.10;;;26.30;99.90;;;;;;6272299;22;20398;-81
2023/06/14 09:55:59;;;;;;;2.03;0.97;;;26.10;99.90;;;;;;6268137;23;20464;-80
2023/06/14 09:58:29;;;;;;;3.47;1.20;;;26.00;99.90;;;;;;6264435;23;20411;-81
2023/06/14 10:00:56;;;;;;;3.63;1.27;;;26.00;99.90;;;;;;6261811;23;20427;-81
2023/06/14 10:03:29;;;;;;;3.30;1.10;;;26.00;99.90;;;;;;6260943;23;20432;-81
2023/06/14 10:06:03;;;;;;;3.60;1.20;;;26.10;99.90;;;;;;6259772;23;20469;-81
2023/06/14 10:08:33;;;;;;;3.30;1.20;;;26.30;99.90;;;;;;6261672;23;20369;-81
2023/06/14 10:11:00;;;;;;;3.20;1.00;;;26.30;99.90;;;;;;6260418;23;20451;-82
2023/06/14 10:13:29;;;;;;;4.20;1.33;;;26.50;99.90;;;;;;6261924;23;20403;-82
2023/06/14 10:16:03;;;;;;;3.33;1.20;;;26.50;99.90;;;;;;6260419;23;20436;-81
2023/06/14 10:18:39;;;;;;;6.00;1.50;;;26.60;99.90;;;;;;6262116;23;20419;-82
2023/06/14 10:21:17;;;;;;;2.00;1.10;;;26.60;99.90;;;;;;6260036;23;20431;-81
2023/06/14 10:23:48;;;;;;;3.60;1.33;;;26.60;99.90;;;;;;6261607;23;20431;-81
2023/06/14 10:26:22;;;;;;;3.57;1.37;;;26.80;99.90;;;;;;6261204;23;20428;-80
2023/06/14 10:29:01;;;;;;;2.30;1.20;;;26.90;99.90;;;;;;6261652;23;20446;-82
2023/06/14 10:31:44;;;;;;;2.60;1.50;;;27.00;99.90;;;;;;6262803;23;20435;-81
2023/06/14 10:34:12;;;;;;;2.80;1.40;;;27.10;99.90;;;;;;6260962;23;20459;-80
2023/06/14 10:36:43;;;;;;;3.73;1.80;;;27.30;99.90;;;;;;6262459;23;20435;-82
2023/06/14 10:39:16;;;;;;;2.90;1.37;;;27.30;99.90;;;;;;6261761;23;20392;-83
2023/06/14 10:41:52;;;;;;;3.43;1.40;;;27.30;99.90;;;;;;6261461;23;20523;-82
2023/06/14 10:44:55;;;;;;;6.90;1.73;;;27.30;99.90;;;;;;6261383;23;20526;-83
2023/06/14 10:47:24;;;;;;;2.60;1.40;;;27.40;99.90;;;;;;6261824;23;20392;-83
2023/06/14 10:49:53;;;;;;;4.33;1.30;;;27.50;99.90;;;;;;6259486;23;20431;-81
2023/06/14 10:52:27;;;;;;;2.73;1.33;;;27.30;99.90;;;;;;6260442;23;20458;-83
2023/06/14 10:55:15;;;;;;;3.33;1.40;;;27.60;99.90;;;;;;6259667;23;20423;-82
2023/06/14 10:57:43;;;;;;;9.53;1.47;;;27.70;99.90;;;;;;6260748;23;20388;-83
2023/06/14 11:00:21;;;;;;;5.00;1.40;;;27.60;99.90;;;;;;6259498;23;20412;-85
2023/06/14 11:03:28;;;;;;;3.10;1.40;;;27.60;99.90;;;;;;6261710;22;20459;-85
2023/06/14 11:05:59;;;;;;;3.70;1.60;;;27.60;99.90;;;;;;6258573;23;20737;-85
2023/06/14 11:08:40;;;;;;;4.50;1.20;;;27.90;99.90;;;;;;6264733;23;20396;-84
2023/06/14 11:11:09;;;;;;;2.40;1.10;;;27.80;99.90;;;;;;6257711;23;20474;-83
2023/06/14 11:13:40;;;;;;;3.83;1.57;;;27.90;99.90;;;;;;6258832;23;20411;-83
2023/06/14 11:16:12;;;;;;;2.80;1.40;;;28.00;99.90;;;;;;6258276;23;20399;-82
2023/06/14 11:18:39;;;;;;;2.30;1.10;;;28.20;99.90;;;;;;6259474;23;20412;-83
2023/06/14 11:21:15;;;;;;;3.77;1.53;;;28.00;99.90;;;;;;6258992;23;20423;-84
2023/06/14 11:23:42;;;;;;;3.80;1.43;;;27.90;99.90;;;;;;6257975;23;20456;-83
2023/06/14 11:26:10;;;;;;;2.90;1.67;;;28.00;99.90;;;;;;6256217;23;20592;-84
2023/06/14 11:28:39;;;;;;;3.50;1.50;;;28.30;99.90;;;;;;6257482;23;20471;-84
2023/06/14 11:31:06;;;;;;;5.10;1.60;;;28.50;99.90;;;;;;6257425;23;20442;-83
2023/06/14 11:33:33;;;;;;;3.13;1.53;;;28.70;99.90;;;;;;6258283;23;20472;-83
2023/06/14 11:36:02;;;;;;;3.20;1.57;;;28.90;99.90;;;;;;6255931;23;20420;-83
2023/06/14 11:38:29;;;;;;;5.00;1.83;;;28.80;99.90;;;;;;6256682;23;20447;-82
2023/06/14 11:41:02;;;;;;;4.20;1.87;;;29.00;99.90;;;;;;6255892;23;20416;-83
2023/06/14 11:43:32;;;;;;;5.07;1.87;;;28.60;99.90;;;;;;6258223;23;20442;-83
2023/06/14 11:45:58;;;;;;;5.10;1.93;;;28.90;99.90;;;;;;6258153;23;20992;-83
2023/06/14 11:48:37;;;;;;;5.90;1.80;;;29.20;99.90;;;;;;6257904;23;20431;-82
2023/06/14 11:51:06;;;;;;;4.73;1.77;;;29.30;99.90;;;;;;6258506;23;20423;-82
2023/06/14 11:53:34;;;;;;;6.07;1.90;;;29.40;99.90;;;;;;6257864;23;20411;-83
2023/06/14 11:56:02;;;;;;;3.13;1.63;;;29.50;99.90;;;;;;6257479;23;20925;-85
2023/06/14 11:58:31;;;;;;;3.00;1.80;;;29.10;99.90;;;;;;6257520;23;20479;-84
2023/06/14 12:00:58;;;;;;;3.77;1.87;;;29.40;99.90;;;;;;6257674;22;20427;-82
2023/06/14 12:03:27;;;;;;;3.00;1.70;;;29.70;99.90;;;;;;6258216;23;20396;-84
2023/06/14 12:06:03;;;;;;;2.77;1.93;;;29.40;99.90;;;;;;6258857;23;20470;-84
2023/06/14 12:08:39;;;;;;;2.77;1.63;;;29.80;99.90;;;;;;6258639;23;20400;-83
2023/06/14 12:11:13;;;;;;;3.03;1.93;;;29.90;99.90;;;;;;6260152;23;20494;-84
2023/06/14 12:13:42;;;;;;;3.43;1.83;;;30.20;99.90;;;;;;6261695;23;20481;-83
2023/06/14 12:16:09;;;;;;;3.00;1.80;;;30.00;99.90;;;;;;6260250;23;20439;-84
2023/06/14 12:18:37;;;;;;;4.20;1.77;;;30.10;99.90;;;;;;6261120;23;20415;-84
2023/06/14 12:21:06;;;;;;;4.00;1.73;;;30.30;99.90;;;;;;6261889;23;20430;-83
2023/06/14 12:23:46;;;;;;;5.30;1.80;;;30.60;99.90;;;;;;6261069;23;20450;-84
2023/06/14 12:26:19;;;;;;;4.53;1.97;;;30.60;99.90;;;;;;6260054;23;20467;-84
2023/06/14 12:28:48;;;;;;;6.30;1.90;;;30.60;99.90;;;;;;6257705;23;20806;-83
2023/06/14 12:31:16;;;;;;;3.57;1.67;;;30.60;99.90;;;;;;6258436;23;20447;-83
2023/06/14 12:33:45;;;;;;;3.10;1.70;;;30.70;99.90;;;;;;6257115;23;20415;-83
2023/06/14 12:36:12;;;;;;;4.80;1.40;;;30.90;99.90;;;;;;6256075;23;20611;-82
2023/06/14 12:38:39;;;;;;;3.30;1.73;;;31.20;99.90;;;;;;6257169;23;20435;-83
2023/06/14 12:41:07;;;;;;;3.30;1.70;;;31.40;99.90;;;;;;6256372;23;20454;-82
2023/06/14 12:43:34;;;;;;;2.60;1.60;;;31.60;99.90;;;;;;6256754;23;20419;-83
2023/06/14 12:46:02;;;;;;;4.00;1.40;;;31.80;99.90;;;;;;6256721;23;20447;-83
2023/06/14 12:48:30;;;;;;;4.87;2.00;;;32.00;99.90;;;;;;6258461;23;20408;-83
2023/06/14 12:51:00;;;;;;;3.70;1.80;;;31.90;99.90;;;;;;6256237;23;20431;-83
2023/06/14 12:53:27;;;;;;;4.10;1.97;;;32.10;99.90;;;;;;6256709;23;20411;-83
2023/06/14 12:55:54;;;;;;;3.10;1.83;;;32.30;99.90;;;;;;6255092;23;20772;-83
2023/06/14 12:58:23;;;;;;;2.67;1.87;;;32.30;99.90;;;;;;6257906;23;21031;-83
2023/06/14 13:00:50;;;;;;;3.00;1.73;;;32.40;99.90;;;;;;6257631;23;20494;-83
2023/06/14 13:03:18;;;;;;;2.40;1.80;;;32.60;99.90;;;;;;6256413;23;20728;-84
2023/06/14 13:05:45;;;;;;;5.37;1.83;;;32.70;99.90;;;;;;6258794;23;20443;-84
2023/06/14 13:08:13;;;;;;;3.70;1.90;;;33.00;99.90;;;;;;6259174;23;20438;-86
2023/06/14 13:10:40;;;;;;;3.03;1.70;;;33.00;99.90;;;;;;6259712;23;20415;-86
2023/06/14 13:13:08;;;;;;;2.47;1.50;;;33.30;99.90;;;;;;6260760;23;20454;-86
2023/06/14 13:15:35;;;;;;;4.60;1.60;;;33.10;99.90;;;;;;6259500;23;20410;-86